Time;durP1;ratioP1;P1;durP2;ratioP2;P2;SDS_P1;SDS_P2;PMS_P1;PMS_P2;Temp;Humidity;BMP_temperature;BMP_pressure;BME280_temperature;BME280_humidity;BME280_pressure;Samples;Min_cycle;Max_cycle;Signal;HPM_P1;HPM_P2
2024/02/28 00:01:02;;;;;;;10.23;8.13;;;;;;;;;;6298921;28;25195;-85
2024/02/28 00:04:04;;;;;;;9.27;7.78;;;;;;;;;;6299037;28;24434;-86
2024/02/28 00:07:06;;;;;;;10.65;8.65;;;;;;;;;;6300968;28;24438;-84
2024/02/28 00:10:09;;;;;;;10.33;8.53;;;;;;;;;;6325300;28;24564;-85
2024/02/28 00:13:12;;;;;;;10.63;8.82;;;;;;;;;;6294973;28;24427;-87
2024/02/28 00:16:14;;;;;;;11.40;8.80;;;;;;;;;;6296147;28;24500;-87
2024/02/28 00:19:17;;;;;;;12.00;9.02;;;;;;;;;;6322947;28;24429;-85
2024/02/28 00:22:18;;;;;;;11.40;8.95;;;;;;;;;;6304398;28;24461;-84
2024/02/28 00:25:20;;;;;;;11.25;9.25;;;;;;;;;;6320047;28;24689;-86
2024/02/28 00:28:23;;;;;;;10.52;9.13;;;;;;;;;;6304683;28;24780;-85
2024/02/28 00:31:26;;;;;;;10.48;9.20;;;;;;;;;;6322304;28;24492;-85
2024/02/28 00:34:27;;;;;;;12.38;8.98;;;;;;;;;;6304096;28;24895;-83
2024/02/28 00:37:29;;;;;;;10.38;8.45;;;;;;;;;;6314124;28;24611;-87
2024/02/28 00:40:31;;;;;;;10.15;8.60;;;;;;;;;;6296607;28;24434;-86
2024/02/28 00:43:34;;;;;;;13.50;9.00;;;;;;;;;;6303073;28;24443;-86
2024/02/28 00:46:36;;;;;;;10.95;8.85;;;;;;;;;;6321604;28;24429;-86
2024/02/28 00:49:38;;;;;;;11.07;9.35;;;;;;;;;;6303605;28;24416;-85
2024/02/28 00:52:40;;;;;;;11.47;8.77;;;;;;;;;;6321723;28;24414;-85
2024/02/28 00:55:42;;;;;;;10.50;8.80;;;;;;;;;;6303917;28;24614;-86
2024/02/28 00:58:46;;;;;;;10.60;8.57;;;;;;;;;;6319656;28;24426;-85
2024/02/28 01:01:55;;;;;;;10.32;8.57;;;;;;;;;;6317283;28;24446;-88
2024/02/28 01:04:57;;;;;;;11.25;9.02;;;;;;;;;;6294723;28;24442;-84
2024/02/28 01:08:02;;;;;;;11.48;9.05;;;;;;;;;;6303037;28;24478;-88
2024/02/28 01:11:04;;;;;;;11.63;8.70;;;;;;;;;;6315285;28;24511;-88
2024/02/28 01:14:12;;;;;;;10.15;9.07;;;;;;;;;;6304641;28;24429;-88
2024/02/28 01:17:19;;;;;;;11.73;9.20;;;;;;;;;;6310952;28;24813;-89
2024/02/28 01:20:27;;;;;;;10.80;8.77;;;;;;;;;;6313112;28;24422;-88
2024/02/28 01:23:37;;;;;;;11.52;9.20;;;;;;;;;;6315950;28;24477;-88
2024/02/28 01:26:39;;;;;;;11.25;8.90;;;;;;;;;;6308317;28;24487;-85
2024/02/28 01:29:49;;;;;;;12.50;9.55;;;;;;;;;;6316691;28;24504;-86
2024/02/28 01:32:52;;;;;;;11.75;9.07;;;;;;;;;;6320758;28;24614;-86
2024/02/28 01:36:01;;;;;;;11.85;9.43;;;;;;;;;;6320235;28;24693;-86
2024/02/28 01:39:03;;;;;;;11.23;8.90;;;;;;;;;;6324067;28;24493;-85
2024/02/28 01:42:06;;;;;;;11.32;9.20;;;;;;;;;;6317754;28;24610;-86
2024/02/28 01:45:14;;;;;;;10.68;9.57;;;;;;;;;;6322796;28;24430;-88
2024/02/28 01:48:20;;;;;;;10.95;8.73;;;;;;;;;;6327570;28;24517;-86
2024/02/28 01:51:27;;;;;;;10.85;9.23;;;;;;;;;;6321097;28;24848;-89
2024/02/28 01:54:32;;;;;;;9.95;8.25;;;;;;;;;;6325767;28;24899;-86
2024/02/28 01:57:38;;;;;;;10.85;8.75;;;;;;;;;;6323310;28;24415;-88
2024/02/28 02:00:47;;;;;;;10.38;8.70;;;;;;;;;;6321818;28;25807;-89
2024/02/28 02:03:52;;;;;;;11.65;8.98;;;;;;;;;;6322039;28;24425;-86
2024/02/28 02:06:54;;;;;;;11.02;8.98;;;;;;;;;;6321464;28;24821;-85
2024/02/28 02:09:56;;;;;;;8.93;8.00;;;;;;;;;;6320500;28;24835;-84
2024/02/28 02:13:05;;;;;;;11.53;8.57;;;;;;;;;;6321863;28;24502;-84
2024/02/28 02:16:08;;;;;;;10.02;8.30;;;;;;;;;;6322520;28;24429;-85
2024/02/28 02:19:10;;;;;;;11.43;8.88;;;;;;;;;;6300713;28;24421;-84
2024/02/28 02:22:14;;;;;;;10.57;8.63;;;;;;;;;;6326412;28;24426;-84
2024/02/28 02:25:17;;;;;;;9.80;8.52;;;;;;;;;;6326037;28;24436;-84
2024/02/28 02:28:19;;;;;;;10.00;7.97;;;;;;;;;;6326008;28;24418;-85
2024/02/28 02:31:21;;;;;;;10.80;8.35;;;;;;;;;;6334367;28;24465;-86
2024/02/28 02:34:23;;;;;;;9.83;8.10;;;;;;;;;;6323326;28;24481;-85
2024/02/28 02:37:25;;;;;;;9.30;8.02;;;;;;;;;;6326879;28;24434;-86
2024/02/28 02:40:28;;;;;;;8.98;8.00;;;;;;;;;;6326309;28;25396;-85
2024/02/28 02:43:30;;;;;;;10.00;8.00;;;;;;;;;;6320540;28;24434;-85
2024/02/28 02:46:31;;;;;;;11.02;8.55;;;;;;;;;;6323893;28;24419;-85
2024/02/28 02:49:33;;;;;;;9.52;8.23;;;;;;;;;;6325512;28;24812;-86
2024/02/28 02:52:35;;;;;;;11.10;8.30;;;;;;;;;;6321538;28;24413;-84
2024/02/28 02:55:38;;;;;;;10.90;8.60;;;;;;;;;;6321770;28;24656;-85
2024/02/28 02:58:40;;;;;;;10.17;8.20;;;;;;;;;;6324423;28;24429;-85
2024/02/28 03:01:42;;;;;;;11.85;8.57;;;;;;;;;;6328531;28;24414;-85
2024/02/28 03:04:43;;;;;;;10.82;8.25;;;;;;;;;;6330682;28;24430;-84
2024/02/28 03:07:45;;;;;;;9.27;7.97;;;;;;;;;;6327221;28;24415;-85
2024/02/28 03:10:48;;;;;;;10.35;8.00;;;;;;;;;;6329617;28;24812;-84
2024/02/28 03:13:50;;;;;;;10.00;7.93;;;;;;;;;;6331010;28;24425;-86
2024/02/28 03:16:52;;;;;;;8.85;7.25;;;;;;;;;;6324127;28;24440;-85
2024/02/28 03:19:54;;;;;;;9.18;7.85;;;;;;;;;;6328888;28;24503;-86
2024/02/28 03:22:55;;;;;;;10.00;7.60;;;;;;;;;;6320149;28;24422;-83
2024/02/28 03:25:58;;;;;;;10.68;7.95;;;;;;;;;;6293611;28;24937;-86
2024/02/28 03:29:01;;;;;;;9.10;7.43;;;;;;;;;;6302881;28;24431;-87
2024/02/28 03:32:02;;;;;;;8.75;7.43;;;;;;;;;;6316498;28;24472;-86
2024/02/28 03:35:08;;;;;;;8.63;7.00;;;;;;;;;;6300521;28;24472;-85
2024/02/28 03:38:10;;;;;;;9.77;7.00;;;;;;;;;;6320136;28;24500;-85
2024/02/28 03:41:13;;;;;;;8.32;7.20;;;;;;;;;;6328458;28;24482;-85
2024/02/28 03:44:15;;;;;;;8.68;6.70;;;;;;;;;;6329379;28;24429;-85
2024/02/28 03:47:16;;;;;;;9.07;6.95;;;;;;;;;;6325787;28;24453;-84
2024/02/28 03:50:18;;;;;;;8.02;6.60;;;;;;;;;;6324597;28;24442;-85
2024/02/28 03:53:20;;;;;;;9.13;6.72;;;;;;;;;;6326528;28;24420;-85
2024/02/28 03:56:27;;;;;;;8.02;6.63;;;;;;;;;;6325861;28;24680;-86
2024/02/28 03:59:29;;;;;;;9.35;6.75;;;;;;;;;;6326799;28;24414;-85
2024/02/28 04:02:30;;;;;;;7.78;6.32;;;;;;;;;;6322896;28;25048;-86
2024/02/28 04:05:32;;;;;;;8.40;6.40;;;;;;;;;;6325014;28;24642;-85
2024/02/28 04:08:34;;;;;;;8.70;6.45;;;;;;;;;;6326485;28;24429;-85
2024/02/28 04:11:38;;;;;;;7.43;6.00;;;;;;;;;;6320972;28;24411;-83
2024/02/28 04:14:39;;;;;;;7.75;5.80;;;;;;;;;;6318793;28;24436;-84
2024/02/28 04:17:41;;;;;;;7.45;5.68;;;;;;;;;;6324905;28;24522;-83
2024/02/28 04:20:44;;;;;;;7.55;5.90;;;;;;;;;;6321752;28;24421;-83
2024/02/28 04:23:45;;;;;;;7.63;5.60;;;;;;;;;;6320484;28;24419;-85
2024/02/28 04:26:49;;;;;;;6.80;5.60;;;;;;;;;;6323023;28;24449;-85
2024/02/28 04:29:50;;;;;;;7.97;5.47;;;;;;;;;;6323630;28;24836;-84
2024/02/28 04:32:52;;;;;;;8.40;5.47;;;;;;;;;;6325150;28;24829;-84
2024/02/28 04:35:54;;;;;;;6.95;5.00;;;;;;;;;;6326447;28;24429;-86
2024/02/28 04:38:56;;;;;;;6.70;5.25;;;;;;;;;;6323900;28;24510;-84
2024/02/28 04:41:59;;;;;;;7.40;5.00;;;;;;;;;;6326270;28;24803;-83
2024/02/28 04:45:01;;;;;;;5.82;4.90;;;;;;;;;;6329279;28;24434;-87
2024/02/28 04:48:03;;;;;;;5.72;4.78;;;;;;;;;;6329616;28;24430;-84
2024/02/28 04:51:05;;;;;;;6.05;4.93;;;;;;;;;;6327638;28;24501;-85
2024/02/28 04:54:06;;;;;;;6.93;4.85;;;;;;;;;;6328954;28;24437;-86
2024/02/28 04:57:10;;;;;;;6.50;5.07;;;;;;;;;;6320216;28;24553;-85
2024/02/28 05:00:12;;;;;;;6.55;4.38;;;;;;;;;;6324798;28;24418;-85
2024/02/28 05:03:14;;;;;;;6.47;4.53;;;;;;;;;;6327084;28;24911;-86
2024/02/28 05:06:16;;;;;;;6.38;4.85;;;;;;;;;;6325120;28;24430;-84
2024/02/28 05:09:18;;;;;;;5.30;4.28;;;;;;;;;;6323326;28;24414;-85
2024/02/28 05:12:21;;;;;;;6.10;4.47;;;;;;;;;;6325974;28;24431;-84
2024/02/28 05:15:23;;;;;;;6.23;4.43;;;;;;;;;;6327457;28;24417;-85
2024/02/28 05:18:25;;;;;;;6.13;4.47;;;;;;;;;;6325734;28;24418;-82
2024/02/28 05:21:27;;;;;;;5.93;4.40;;;;;;;;;;6328992;28;24429;-83
2024/02/28 05:24:29;;;;;;;5.15;4.22;;;;;;;;;;6324637;28;24485;-85
2024/02/28 05:27:32;;;;;;;6.70;4.13;;;;;;;;;;6304768;28;24533;-85
2024/02/28 05:30:35;;;;;;;5.88;4.18;;;;;;;;;;6294232;28;24421;-85
2024/02/28 05:33:37;;;;;;;5.22;4.43;;;;;;;;;;6294812;28;24438;-84
2024/02/28 05:36:39;;;;;;;6.03;4.25;;;;;;;;;;6297530;28;24813;-87
2024/02/28 05:42:58;;;;;;;7.50;4.47;;;;;;;;;;6293264;28;24430;-86
2024/02/28 05:46:00;;;;;;;6.13;4.60;;;;;;;;;;6299021;28;24426;-87
2024/02/28 05:49:02;;;;;;;7.68;4.80;;;;;;;;;;6295097;28;24860;-87
2024/02/28 05:52:04;;;;;;;5.93;4.68;;;;;;;;;;6293471;28;24433;-87
2024/02/28 05:55:06;;;;;;;6.57;5.00;;;;;;;;;;6294406;28;24435;-86
2024/02/28 05:58:10;;;;;;;7.13;4.97;;;;;;;;;;6297433;28;24517;-86
2024/02/28 06:01:11;;;;;;;6.10;5.13;;;;;;;;;;6270988;28;24434;-84
2024/02/28 06:04:13;;;;;;;7.05;5.07;;;;;;;;;;6269654;28;24515;-84
2024/02/28 06:07:15;;;;;;;7.13;5.33;;;;;;;;;;6274949;28;24530;-88
2024/02/28 06:10:17;;;;;;;6.93;5.47;;;;;;;;;;6293395;28;24442;-86
2024/02/28 06:13:20;;;;;;;6.65;5.53;;;;;;;;;;6274917;28;24427;-86
2024/02/28 06:16:22;;;;;;;7.32;5.55;;;;;;;;;;6276006;28;24876;-86
2024/02/28 06:19:23;;;;;;;7.57;5.85;;;;;;;;;;6327243;28;24424;-85
2024/02/28 06:22:25;;;;;;;7.53;5.33;;;;;;;;;;6324872;28;24500;-85
2024/02/28 06:25:28;;;;;;;7.10;5.70;;;;;;;;;;6320341;28;24793;-84
2024/02/28 06:28:32;;;;;;;6.80;5.67;;;;;;;;;;6326947;28;24502;-84
2024/02/28 06:31:33;;;;;;;8.65;5.68;;;;;;;;;;6327137;28;24704;-85
2024/02/28 06:34:35;;;;;;;7.50;6.03;;;;;;;;;;6324970;28;24601;-86
2024/02/28 06:37:37;;;;;;;7.07;5.53;;;;;;;;;;6316513;28;24793;-82
2024/02/28 06:40:39;;;;;;;6.40;5.63;;;;;;;;;;6327869;28;24699;-83
2024/02/28 06:43:42;;;;;;;6.95;5.75;;;;;;;;;;6326526;28;24483;-85
2024/02/28 06:46:44;;;;;;;8.43;5.72;;;;;;;;;;6320313;28;24433;-84
2024/02/28 06:49:46;;;;;;;6.90;5.32;;;;;;;;;;6323431;28;24453;-83
2024/02/28 06:52:47;;;;;;;5.85;4.88;;;;;;;;;;6317483;28;24429;-84
2024/02/28 06:55:49;;;;;;;5.97;5.30;;;;;;;;;;6318276;28;24422;-84
2024/02/28 06:58:52;;;;;;;6.95;5.45;;;;;;;;;;6319863;28;24631;-85
2024/02/28 07:01:54;;;;;;;7.83;5.87;;;;;;;;;;6319969;28;24434;-83
2024/02/28 07:04:56;;;;;;;8.32;6.32;;;;;;;;;;6320327;28;24494;-87
2024/02/28 07:07:58;;;;;;;8.70;6.85;;;;;;;;;;6328137;28;24423;-84
2024/02/28 07:10:59;;;;;;;8.45;7.07;;;;;;;;;;6322331;28;24414;-83
2024/02/28 07:14:03;;;;;;;9.70;7.15;;;;;;;;;;6325196;28;24859;-84
2024/02/28 07:17:06;;;;;;;9.20;7.47;;;;;;;;;;6321195;28;24406;-87
2024/02/28 07:20:09;;;;;;;8.32;6.22;;;;;;;;;;6322336;28;24429;-87
2024/02/28 07:23:11;;;;;;;7.85;6.45;;;;;;;;;;6320241;28;24423;-85
2024/02/28 07:26:15;;;;;;;9.65;6.70;;;;;;;;;;6320011;28;24445;-86
2024/02/28 07:29:18;;;;;;;8.30;6.32;;;;;;;;;;6319465;28;24411;-85
2024/02/28 07:32:20;;;;;;;8.32;6.20;;;;;;;;;;6324673;28;24468;-83
2024/02/28 07:35:23;;;;;;;6.95;5.72;;;;;;;;;;6330360;28;24421;-84
2024/02/28 07:38:27;;;;;;;7.20;4.53;;;;;;;;;;6323053;28;24410;-85
2024/02/28 07:41:29;;;;;;;7.72;5.35;;;;;;;;;;6327567;28;24434;-83
2024/02/28 07:44:32;;;;;;;4.88;3.50;;;;;;;;;;6324558;28;24832;-85
2024/02/28 07:47:34;;;;;;;5.20;3.40;;;;;;;;;;6320390;28;24836;-83
2024/02/28 07:50:37;;;;;;;7.07;3.40;;;;;;;;;;6324432;28;24449;-86
2024/02/28 07:53:39;;;;;;;4.77;3.60;;;;;;;;;;6322304;28;24429;-83
2024/02/28 07:56:41;;;;;;;4.20;3.40;;;;;;;;;;6330690;28;24443;-83
2024/02/28 07:59:44;;;;;;;4.50;3.20;;;;;;;;;;6320230;28;24422;-85
2024/02/28 08:02:46;;;;;;;3.88;3.10;;;;;;;;;;6323027;28;24421;-86
2024/02/28 08:05:48;;;;;;;5.72;4.10;;;;;;;;;;6322605;28;24804;-85
2024/02/28 08:08:50;;;;;;;5.07;3.88;;;;;;;;;;6326135;28;24489;-85
2024/02/28 08:11:52;;;;;;;8.45;4.22;;;;;;;;;;6321324;28;24785;-85
2024/02/28 08:14:55;;;;;;;7.13;3.88;;;;;;;;;;6326999;28;24832;-87
2024/02/28 08:17:57;;;;;;;6.95;3.80;;;;;;;;;;6322095;28;24422;-84
2024/02/28 08:21:02;;;;;;;8.48;4.10;;;;;;;;;;6316692;28;24419;-88
2024/02/28 08:24:04;;;;;;;6.45;4.05;;;;;;;;;;6325592;28;24483;-86
2024/02/28 08:27:06;;;;;;;6.00;4.03;;;;;;;;;;6326524;28;24433;-86
2024/02/28 08:30:10;;;;;;;7.03;4.70;;;;;;;;;;6321449;28;24687;-86
2024/02/28 08:33:12;;;;;;;5.40;4.10;;;;;;;;;;6324068;28;24619;-83
2024/02/28 08:36:15;;;;;;;7.38;4.75;;;;;;;;;;6321091;28;24486;-86
2024/02/28 08:39:17;;;;;;;5.97;4.40;;;;;;;;;;6321788;28;24490;-82
2024/02/28 08:42:18;;;;;;;5.70;4.33;;;;;;;;;;6321141;28;24449;-85
2024/02/28 08:45:22;;;;;;;7.07;4.90;;;;;;;;;;6321224;28;24411;-85
2024/02/28 08:48:24;;;;;;;6.68;5.30;;;;;;;;;;6317500;28;24438;-86
2024/02/28 08:51:27;;;;;;;6.32;5.10;;;;;;;;;;6318750;28;24426;-85
2024/02/28 08:54:29;;;;;;;8.07;5.40;;;;;;;;;;6316629;28;24479;-85
2024/02/28 08:57:31;;;;;;;7.72;5.50;;;;;;;;;;6322380;28;24662;-84
2024/02/28 09:00:35;;;;;;;8.97;5.70;;;;;;;;;;6320063;28;24441;-85
2024/02/28 09:03:36;;;;;;;8.30;5.50;;;;;;;;;;6324832;28;24426;-83
2024/02/28 09:06:38;;;;;;;9.32;5.65;;;;;;;;;;6323232;28;24428;-85
2024/02/28 09:09:43;;;;;;;7.35;5.20;;;;;;;;;;6322888;28;24415;-84
2024/02/28 09:12:45;;;;;;;8.57;5.20;;;;;;;;;;6323416;28;24505;-86
2024/02/28 09:15:48;;;;;;;6.97;5.50;;;;;;;;;;6323774;28;25032;-85
2024/02/28 09:18:49;;;;;;;7.40;5.93;;;;;;;;;;6318607;28;24418;-84
2024/02/28 09:21:51;;;;;;;10.35;6.25;;;;;;;;;;6326436;28;24413;-85
2024/02/28 09:24:53;;;;;;;11.13;7.18;;;;;;;;;;6326585;28;24418;-87
2024/02/28 09:27:55;;;;;;;10.48;7.40;;;;;;;;;;6318413;28;24514;-85
2024/02/28 09:30:58;;;;;;;8.43;7.00;;;;;;;;;;6322687;28;24503;-85
2024/02/28 09:34:02;;;;;;;9.80;6.97;;;;;;;;;;6324924;28;24422;-85
2024/02/28 09:37:05;;;;;;;11.38;8.05;;;;;;;;;;6320850;28;24492;-85
2024/02/28 09:40:10;;;;;;;10.60;7.80;;;;;;;;;;6318888;28;24414;-85
2024/02/28 09:43:16;;;;;;;10.43;6.45;;;;;;;;;;6320870;28;24851;-85
2024/02/28 09:46:19;;;;;;;9.32;6.60;;;;;;;;;;6319163;28;24778;-85
2024/02/28 09:49:21;;;;;;;10.75;6.63;;;;;;;;;;6316961;28;24430;-84
2024/02/28 09:52:23;;;;;;;10.25;6.45;;;;;;;;;;6321218;28;24430;-86
2024/02/28 09:55:25;;;;;;;8.57;6.50;;;;;;;;;;6326572;28;24437;-84
2024/02/28 09:58:28;;;;;;;8.47;6.30;;;;;;;;;;6324121;28;24687;-86
2024/02/28 10:01:31;;;;;;;9.18;6.40;;;;;;;;;;6323678;28;24750;-85
2024/02/28 10:04:34;;;;;;;8.02;5.93;;;;;;;;;;6317035;28;24418;-84
2024/02/28 10:07:36;;;;;;;8.90;6.00;;;;;;;;;;6322117;28;24806;-86
2024/02/28 10:10:38;;;;;;;9.40;5.77;;;;;;;;;;6324220;28;24410;-85
2024/02/28 10:13:40;;;;;;;9.55;5.80;;;;;;;;;;6318283;28;24556;-86
2024/02/28 10:16:44;;;;;;;10.27;6.30;;;;;;;;;;6318575;28;24427;-86
2024/02/28 10:19:47;;;;;;;10.25;7.32;;;;;;;;;;6317726;28;24411;-85
2024/02/28 10:22:48;;;;;;;9.93;5.93;;;;;;;;;;6319511;28;24436;-85
2024/02/28 10:25:50;;;;;;;9.93;6.30;;;;;;;;;;6319787;28;24422;-86
2024/02/28 10:28:52;;;;;;;8.80;6.27;;;;;;;;;;6318563;28;24649;-85
2024/02/28 10:31:56;;;;;;;9.25;6.00;;;;;;;;;;6321727;28;24414;-84
2024/02/28 10:34:58;;;;;;;8.23;6.15;;;;;;;;;;6317287;28;24430;-86
2024/02/28 10:38:00;;;;;;;11.68;6.72;;;;;;;;;;6319724;28;24425;-87
2024/02/28 10:41:02;;;;;;;9.75;5.90;;;;;;;;;;6326261;28;24429;-83
2024/02/28 10:44:04;;;;;;;9.05;6.28;;;;;;;;;;6323210;28;24598;-85
2024/02/28 10:47:09;;;;;;;9.35;5.70;;;;;;;;;;6328674;28;24413;-85
2024/02/28 10:50:10;;;;;;;9.85;5.60;;;;;;;;;;6327533;28;24467;-85
2024/02/28 10:53:14;;;;;;;7.20;5.13;;;;;;;;;;6328419;28;24529;-86
2024/02/28 10:56:18;;;;;;;5.82;4.78;;;;;;;;;;6327197;28;24418;-86
2024/02/28 10:59:22;;;;;;;7.38;5.30;;;;;;;;;;6327485;28;24423;-87
2024/02/28 11:02:26;;;;;;;7.88;5.57;;;;;;;;;;6322086;28;24426;-85
2024/02/28 11:05:36;;;;;;;7.60;5.07;;;;;;;;;;6322998;28;24841;-86
2024/02/28 11:08:40;;;;;;;8.87;5.17;;;;;;;;;;6328572;28;24438;-85
2024/02/28 11:11:41;;;;;;;7.55;5.05;;;;;;;;;;6324512;28;24428;-85
2024/02/28 11:14:43;;;;;;;7.55;5.15;;;;;;;;;;6324646;28;24414;-84
2024/02/28 11:17:47;;;;;;;6.88;4.90;;;;;;;;;;6322755;28;24503;-86
2024/02/28 11:20:50;;;;;;;8.75;5.40;;;;;;;;;;6330862;28;24482;-83
2024/02/28 11:23:52;;;;;;;8.50;5.78;;;;;;;;;;6329930;28;24405;-85
2024/02/28 11:26:55;;;;;;;8.85;6.20;;;;;;;;;;6325584;28;24421;-86
2024/02/28 11:29:57;;;;;;;11.23;6.85;;;;;;;;;;6324023;28;24521;-86
2024/02/28 11:33:00;;;;;;;7.15;5.93;;;;;;;;;;6322214;28;24608;-84
2024/02/28 11:36:03;;;;;;;8.97;6.10;;;;;;;;;;6323758;28;24441;-83
2024/02/28 11:39:06;;;;;;;8.93;6.30;;;;;;;;;;6324773;28;24415;-86
2024/02/28 11:42:13;;;;;;;6.80;5.50;;;;;;;;;;6326838;28;24426;-87
2024/02/28 11:45:16;;;;;;;8.73;4.93;;;;;;;;;;6322228;28;24491;-85
2024/02/28 11:48:19;;;;;;;5.45;4.60;;;;;;;;;;6323345;28;24411;-84
2024/02/28 11:51:21;;;;;;;3.95;3.33;;;;;;;;;;6325869;28;24421;-87
2024/02/28 11:54:23;;;;;;;4.95;2.70;;;;;;;;;;6320280;28;24429;-85
2024/02/28 11:57:25;;;;;;;4.43;2.80;;;;;;;;;;6318150;28;24494;-85
2024/02/28 12:00:27;;;;;;;1.98;1.20;;;;;;;;;;6313868;28;24503;-86
2024/02/28 12:03:30;;;;;;;5.13;1.90;;;;;;;;;;6322087;28;24431;-85
2024/02/28 12:06:32;;;;;;;4.03;2.10;;;;;;;;;;6321112;28;24417;-83
2024/02/28 12:09:34;;;;;;;5.85;3.80;;;;;;;;;;6324043;28;24817;-85
2024/02/28 12:12:36;;;;;;;6.68;2.90;;;;;;;;;;6323867;28;24433;-83
2024/02/28 12:15:38;;;;;;;3.03;2.37;;;;;;;;;;6324529;28;24618;-84
2024/02/28 12:18:41;;;;;;;5.05;3.10;;;;;;;;;;6324424;28;24810;-84
2024/02/28 12:21:43;;;;;;;6.22;4.68;;;;;;;;;;6326427;28;24603;-84
2024/02/28 12:24:45;;;;;;;5.70;3.92;;;;;;;;;;6317888;28;24592;-85
2024/02/28 12:27:47;;;;;;;6.22;3.50;;;;;;;;;;6327797;28;24426;-83
2024/02/28 12:30:49;;;;;;;5.88;3.60;;;;;;;;;;6321972;28;24529;-84
2024/02/28 12:33:52;;;;;;;5.22;3.33;;;;;;;;;;6331979;28;24425;-86
2024/02/28 12:36:53;;;;;;;8.07;3.88;;;;;;;;;;6324477;28;24421;-85
2024/02/28 12:39:55;;;;;;;5.15;3.50;;;;;;;;;;6320895;28;24414;-86
2024/02/28 12:42:57;;;;;;;6.10;4.07;;;;;;;;;;6320485;28;24618;-83
2024/02/28 12:45:59;;;;;;;8.32;4.05;;;;;;;;;;6327906;28;24496;-86
2024/02/28 12:49:02;;;;;;;5.95;4.13;;;;;;;;;;6324544;28;24442;-83
2024/02/28 12:52:04;;;;;;;5.97;3.60;;;;;;;;;;6321028;28;24591;-86
2024/02/28 12:55:06;;;;;;;5.47;3.90;;;;;;;;;;6319247;28;24411;-85
2024/02/28 12:58:08;;;;;;;6.85;4.13;;;;;;;;;;6321955;28;24425;-83
2024/02/28 13:01:10;;;;;;;7.15;4.07;;;;;;;;;;6322562;28;24431;-83
2024/02/28 13:04:14;;;;;;;6.43;4.20;;;;;;;;;;6323070;28;24481;-84
2024/02/28 13:07:16;;;;;;;6.72;3.78;;;;;;;;;;6319596;28;24613;-85
2024/02/28 13:10:17;;;;;;;7.27;3.53;;;;;;;;;;6321240;28;24481;-83
2024/02/28 13:13:19;;;;;;;7.43;3.37;;;;;;;;;;6323353;28;24437;-84
2024/02/28 13:16:22;;;;;;;8.48;5.57;;;;;;;;;;6323159;28;24561;-84
2024/02/28 13:19:25;;;;;;;5.60;2.90;;;;;;;;;;6317759;28;24482;-84
2024/02/28 13:22:27;;;;;;;5.82;2.80;;;;;;;;;;6328721;28;24440;-84
2024/02/28 13:25:28;;;;;;;5.95;2.83;;;;;;;;;;6322368;28;24438;-84
2024/02/28 13:28:30;;;;;;;4.85;2.40;;;;;;;;;;6317985;28;24477;-84
2024/02/28 13:31:32;;;;;;;8.15;3.00;;;;;;;;;;6320073;28;24825;-85
2024/02/28 13:34:35;;;;;;;3.60;2.60;;;;;;;;;;6315443;28;24418;-83
2024/02/28 13:37:40;;;;;;;8.85;4.28;;;;;;;;;;6319474;28;24426;-83
2024/02/28 13:40:44;;;;;;;70.90;39.30;;;;;;;;;;6321980;28;24434;-83
2024/02/28 13:43:46;;;;;;;7.55;4.38;;;;;;;;;;6319982;28;24425;-83
2024/02/28 13:46:48;;;;;;;25.77;14.68;;;;;;;;;;6321767;28;24418;-82
2024/02/28 13:49:51;;;;;;;18.10;11.30;;;;;;;;;;6321719;28;24411;-85
2024/02/28 13:52:53;;;;;;;18.45;10.05;;;;;;;;;;6320376;28;24444;-84
2024/02/28 13:55:55;;;;;;;16.63;9.23;;;;;;;;;;6321848;28;24908;-83
2024/02/28 13:58:57;;;;;;;17.90;10.90;;;;;;;;;;6321323;28;24626;-87
2024/02/28 14:02:00;;;;;;;6.50;4.50;;;;;;;;;;6319629;28;25085;-85
2024/02/28 14:05:03;;;;;;;6.37;4.50;;;;;;;;;;6322122;28;24413;-85
2024/02/28 14:08:08;;;;;;;6.80;4.65;;;;;;;;;;6322996;28;24415;-84
2024/02/28 14:11:09;;;;;;;6.97;5.38;;;;;;;;;;6323342;28;24436;-83
2024/02/28 14:14:11;;;;;;;6.63;5.18;;;;;;;;;;6322774;28;24422;-85
2024/02/28 14:17:13;;;;;;;7.90;5.22;;;;;;;;;;6327311;28;24502;-85
2024/02/28 14:20:16;;;;;;;6.82;5.00;;;;;;;;;;6325436;28;24414;-84
2024/02/28 14:23:18;;;;;;;7.18;5.40;;;;;;;;;;6324380;28;24426;-84
2024/02/28 14:26:20;;;;;;;9.25;5.88;;;;;;;;;;6324022;28;24425;-85
2024/02/28 14:29:22;;;;;;;9.35;5.72;;;;;;;;;;6326148;28;24435;-84
2024/02/28 14:32:23;;;;;;;7.82;5.50;;;;;;;;;;6325240;28;24414;-85
2024/02/28 14:35:26;;;;;;;8.00;5.50;;;;;;;;;;6322021;28;24436;-84
2024/02/28 14:38:28;;;;;;;6.90;5.70;;;;;;;;;;6327881;28;24432;-85
2024/02/28 14:41:31;;;;;;;7.20;5.20;;;;;;;;;;6323127;28;24614;-84
2024/02/28 14:44:33;;;;;;;7.55;5.68;;;;;;;;;;6324184;28;24462;-84
2024/02/28 14:47:36;;;;;;;8.13;5.65;;;;;;;;;;6325756;28;24429;-84
2024/02/28 14:50:41;;;;;;;6.88;5.68;;;;;;;;;;6328292;28;24415;-84
2024/02/28 14:53:43;;;;;;;8.32;5.47;;;;;;;;;;6322610;28;24419;-87
2024/02/28 14:56:45;;;;;;;8.73;5.25;;;;;;;;;;6324301;28;24809;-87
2024/02/28 14:59:47;;;;;;;7.85;5.05;;;;;;;;;;6320465;28;24440;-86
2024/02/28 15:02:53;;;;;;;6.60;4.90;;;;;;;;;;6318598;28;24541;-85
2024/02/28 15:05:56;;;;;;;7.55;4.68;;;;;;;;;;6323475;28;24429;-86
2024/02/28 15:08:59;;;;;;;8.02;4.70;;;;;;;;;;6321312;28;24856;-84
2024/02/28 15:12:01;;;;;;;7.07;4.95;;;;;;;;;;6324193;28;24505;-85
2024/02/28 15:15:04;;;;;;;5.82;3.65;;;;;;;;;;6320637;28;24425;-85
2024/02/28 15:18:07;;;;;;;7.53;3.20;;;;;;;;;;6322352;28;24433;-84
2024/02/28 15:21:10;;;;;;;5.05;2.60;;;;;;;;;;6325794;28;24819;-84
2024/02/28 15:24:12;;;;;;;6.13;3.77;;;;;;;;;;6323910;28;24929;-85
2024/02/28 15:27:14;;;;;;;5.35;3.30;;;;;;;;;;6325512;28;24480;-84
2024/02/28 15:30:16;;;;;;;3.70;3.00;;;;;;;;;;6325540;28;24477;-85
2024/02/28 15:33:18;;;;;;;4.70;3.17;;;;;;;;;;6323072;28;24422;-84
2024/02/28 15:36:21;;;;;;;6.75;3.40;;;;;;;;;;6328631;28;24501;-86
2024/02/28 15:39:22;;;;;;;5.30;3.70;;;;;;;;;;6331592;28;24418;-84
2024/02/28 15:42:24;;;;;;;5.85;3.88;;;;;;;;;;6324745;28;24414;-86
2024/02/28 15:45:26;;;;;;;5.57;4.32;;;;;;;;;;6324175;28;24415;-85
2024/02/28 15:48:28;;;;;;;54.30;33.33;;;;;;;;;;6294069;28;24866;-85
2024/02/28 15:51:32;;;;;;;47.63;23.00;;;;;;;;;;6325597;28;24434;-85
2024/02/28 15:54:35;;;;;;;116.70;60.65;;;;;;;;;;6328428;28;24431;-86
2024/02/28 15:57:37;;;;;;;11.40;6.35;;;;;;;;;;6324987;28;24425;-84
2024/02/28 16:00:39;;;;;;;17.50;9.93;;;;;;;;;;6325738;28;24613;-85
2024/02/28 16:03:41;;;;;;;6.85;4.05;;;;;;;;;;6323156;28;24427;-85
2024/02/28 16:06:44;;;;;;;5.18;3.28;;;;;;;;;;6328005;28;24451;-84
2024/02/28 16:09:46;;;;;;;6.47;3.90;;;;;;;;;;6328020;28;24430;-85
2024/02/28 16:12:48;;;;;;;6.40;3.60;;;;;;;;;;6329727;28;24418;-87
2024/02/28 16:15:50;;;;;;;5.45;3.55;;;;;;;;;;6326158;28;24815;-85
2024/02/28 16:18:52;;;;;;;5.72;3.60;;;;;;;;;;6329274;28;24422;-85
2024/02/28 16:21:55;;;;;;;4.35;3.22;;;;;;;;;;6325358;28;24463;-85
2024/02/28 16:24:57;;;;;;;6.78;3.20;;;;;;;;;;6320235;28;24438;-84
2024/02/28 16:27:59;;;;;;;5.53;3.30;;;;;;;;;;6317139;28;24477;-84
2024/02/28 16:31:01;;;;;;;4.68;3.20;;;;;;;;;;6319834;28;24526;-85
2024/02/28 16:34:03;;;;;;;5.68;3.40;;;;;;;;;;6315127;28;24797;-85
2024/02/28 16:37:06;;;;;;;8.50;5.90;;;;;;;;;;6317768;28;24829;-87
2024/02/28 16:40:08;;;;;;;5.63;3.95;;;;;;;;;;6320722;28;24440;-86
2024/02/28 16:43:13;;;;;;;5.47;3.25;;;;;;;;;;6321047;28;24711;-86
2024/02/28 16:46:15;;;;;;;6.95;2.85;;;;;;;;;;6322109;28;24461;-86
2024/02/28 16:49:17;;;;;;;6.05;2.90;;;;;;;;;;6317009;28;24456;-86
2024/02/28 16:52:20;;;;;;;9.30;4.60;;;;;;;;;;6325758;28;24465;-85
2024/02/28 16:55:22;;;;;;;5.10;2.33;;;;;;;;;;6320397;28;24505;-86
2024/02/28 16:58:24;;;;;;;5.95;2.47;;;;;;;;;;6328762;28;24434;-85
2024/02/28 17:01:26;;;;;;;4.03;2.00;;;;;;;;;;6331987;28;24493;-84
2024/02/28 17:04:28;;;;;;;5.03;2.30;;;;;;;;;;6326139;28;24551;-85
2024/02/28 17:07:31;;;;;;;6.28;2.10;;;;;;;;;;6324987;28;24433;-85
2024/02/28 17:10:33;;;;;;;6.18;2.40;;;;;;;;;;6321751;28;24422;-85
2024/02/28 17:13:35;;;;;;;7.63;3.05;;;;;;;;;;6320811;28;24421;-86
2024/02/28 17:16:37;;;;;;;3.25;2.10;;;;;;;;;;6318321;28;24437;-85
2024/02/28 17:19:39;;;;;;;5.10;2.40;;;;;;;;;;6324147;28;24426;-86
2024/02/28 17:22:42;;;;;;;6.68;2.78;;;;;;;;;;6324958;28;24414;-87
2024/02/28 17:25:44;;;;;;;5.05;2.95;;;;;;;;;;6322922;28;24433;-85
2024/02/28 17:28:49;;;;;;;4.30;2.78;;;;;;;;;;6324889;28;24614;-87
2024/02/28 17:31:51;;;;;;;6.95;3.28;;;;;;;;;;6319802;28;24461;-87
2024/02/28 17:34:53;;;;;;;8.05;3.30;;;;;;;;;;6322465;28;24464;-85
2024/02/28 17:37:57;;;;;;;4.88;3.20;;;;;;;;;;6318721;28;24419;-85
2024/02/28 17:40:58;;;;;;;4.78;2.80;;;;;;;;;;6320329;28;24924;-84
2024/02/28 17:44:10;;;;;;;4.70;3.03;;;;;;;;;;6319641;28;24490;-86
2024/02/28 17:47:12;;;;;;;5.50;2.70;;;;;;;;;;6320715;28;24597;-85
2024/02/28 17:50:15;;;;;;;6.15;2.75;;;;;;;;;;6316480;28;24422;-84
2024/02/28 17:53:21;;;;;;;6.72;2.50;;;;;;;;;;6323174;28;24435;-86
2024/02/28 17:56:23;;;;;;;5.47;2.30;;;;;;;;;;6326056;28;24613;-84
2024/02/28 17:59:25;;;;;;;5.40;2.28;;;;;;;;;;6320162;28;24426;-86
2024/02/28 18:02:27;;;;;;;5.65;2.58;;;;;;;;;;6317726;28;24426;-85
2024/02/28 18:05:29;;;;;;;5.18;2.05;;;;;;;;;;6318403;28;24431;-85
2024/02/28 18:08:32;;;;;;;4.45;2.17;;;;;;;;;;6319817;28;24422;-86
2024/02/28 18:11:35;;;;;;;3.47;1.73;;;;;;;;;;6320345;28;24445;-84
2024/02/28 18:14:38;;;;;;;5.93;1.98;;;;;;;;;;6321552;28;24526;-83